CPX261 Details

Departure: Kansas City International Airport (KMCI)
Arrival: General Edward Lawrence Logan International Airport (KBOS)
Route: LAKES2 SPI ROD KLYNE Q29 JHW Q82 PONCT JFUND2
Notes: METROAIR CARGO SUPPORT


Current Weather Information
KMCI 200801Z 34007KT 6SM BR SCT007 OVC019 06/04 A3012 RMK AO2 T00560044
KBOS 200754Z 28005KT 10SM CLR 02/M09 A3040 RMK AO2 SLP292 T00221094 $